| time (UTC) | temp F | wind direction | speed knots | gust knots | rain 1hr in | rain 24hr in | rain mn in | humidity % | barometer mb |
| 20260507070103 | 48 | 0 | 0.9 | 4.3 | 0.00 | 0.34 | 0.00 | 92 | 1006.4 |
| 20260507064559 | 48 | 0 | 0.0 | 4.3 | 0.00 | 0.34 | 0.00 | 92 | 1006.8 |
| 20260507063056 | 48 | 0 | 0.9 | 5.2 | 0.00 | 0.34 | 0.00 | 93 | 1006.5 |
| 20260507061546 | 48 | 0 | 0.0 | 2.6 | 0.00 | 0.34 | 0.00 | 93 | 1006.6 |
| 20260507060049 | 49 | 246 | 0.0 | 3.5 | 0.00 | 0.34 | 0.00 | 93 | 1006.7 |
| 20260507054550 | 49 | 0 | 0.0 | 0.9 | 0.00 | 0.34 | 0.00 | 94 | 1006.5 |
| 20260507053050 | 49 | 0 | 0.0 | 2.6 | 0.00 | 0.34 | 0.00 | 94 | 1006.5 |
| 20260507051544 | 50 | 0 | 0.0 | 0.9 | 0.00 | 0.34 | 0.00 | 94 | 1006.5 |
| 20260507050051 | 50 | 0 | 0.0 | 3.5 | 0.00 | 0.34 | 0.00 | 94 | 1006.3 |
| 20260507044552 | 51 | 0 | 0.0 | 3.5 | 0.00 | 0.34 | 0.00 | 94 | 1006.6 |
| 20260507043048 | 51 | 247 | 0.0 | 1.7 | 0.00 | 0.34 | 0.00 | 94 | 1006.2 |
| 20260507041546 | 52 | 0 | 0.0 | 1.7 | 0.01 | 0.34 | 0.00 | 94 | 1006.4 |
| 20260507040047 | 52 | 0 | 0.0 | 2.6 | 0.01 | 0.34 | 0.00 | 94 | 1006.1 |
| 20260507034542 | 53 | 0 | 0.0 | 6.1 | 0.01 | 0.34 | 0.34 | 94 | 1006.0 |
| 20260507033046 | 54 | 0 | 0.0 | 3.5 | 0.01 | 0.34 | 0.34 | 93 | 1006.0 |
| 20260507031550 | 55 | 0 | 0.0 | 5.2 | 0.01 | 0.33 | 0.33 | 94 | 1006.0 |
| 20260507030047 | 56 | 249 | 0.0 | 6.1 | 0.02 | 0.33 | 0.33 | 95 | 1005.7 |
| 20260507024546 | 57 | 30 | 0.9 | 4.3 | 0.03 | 0.33 | 0.33 | 96 | 1005.3 |
| 20260507023044 | 59 | 202 | 0.0 | 2.6 | 0.03 | 0.33 | 0.33 | 96 | 1005.1 |
| 20260507021547 | 59 | 0 | 0.0 | 1.7 | 0.02 | 0.32 | 0.32 | 96 | 1004.7 |
| 20260507020045 | 59 | 0 | 0.0 | 0.0 | 0.01 | 0.31 | 0.31 | 96 | 1004.8 |
| 20260507014553 | 59 | 0 | 0.0 | 1.7 | 0.00 | 0.30 | 0.30 | 96 | 1004.9 |
| 20260507013106 | 59 | 0 | 0.0 | 0.0 | 0.00 | 0.30 | 0.30 | 96 | 1005.1 |
| 20260507011546 | 59 | 0 | 0.0 | 0.0 | 0.00 | 0.30 | 0.30 | 96 | 1005.1 |
| 20260507004548 | 59 | 0 | 0.0 | 0.9 | 0.00 | 0.30 | 0.30 | 96 | 1005.0 |
| 20260507003052 | 59 | 0 | 0.0 | 3.5 | 0.00 | 0.30 | 0.30 | 96 | 1005.0 |
| 20260507001555 | 59 | 0 | 0.0 | 2.6 | 0.00 | 0.30 | 0.30 | 95 | 1004.8 |
| 20260507000054 | 59 | 0 | 0.0 | 1.7 | 0.00 | 0.30 | 0.30 | 96 | 1004.8 |
| 20260506234554 | 59 | 0 | 0.0 | 2.6 | 0.00 | 0.30 | 0.30 | 96 | 1004.8 |
| 20260506233103 | 59 | 0 | 0.0 | 2.6 | 0.00 | 0.30 | 0.30 | 96 | 1004.9 |
| 20260506231546 | 59 | 0 | 0.0 | 1.7 | 0.00 | 0.30 | 0.30 | 95 | 1005.1 |
| 20260506230050 | 59 | 312 | 0.0 | 2.6 | 0.00 | 0.30 | 0.30 | 95 | 1005.0 |
| 20260506224546 | 59 | 0 | 0.0 | 1.7 | 0.00 | 0.30 | 0.30 | 95 | 1005.1 |
| 20260506223053 | 59 | 0 | 0.0 | 4.3 | 0.02 | 0.30 | 0.30 | 95 | 1005.2 |
| 20260506221558 | 60 | 0 | 0.0 | 4.3 | 0.03 | 0.30 | 0.30 | 95 | 1005.3 |
| 20260506220046 | 60 | 11 | 0.0 | 3.5 | 0.05 | 0.30 | 0.30 | 95 | 1005.3 |
| 20260506214542 | 61 | 44 | 0.0 | 6.1 | 0.06 | 0.30 | 0.30 | 95 | 1005.5 |
| 20260506213045 | 61 | 23 | 0.0 | 2.6 | 0.05 | 0.28 | 0.28 | 95 | 1005.6 |
| 20260506211546 | 61 | 68 | 0.0 | 3.5 | 0.05 | 0.27 | 0.27 | 95 | 1005.7 |
| 20260506210044 | 61 | 0 | 0.0 | 2.6 | 0.05 | 0.25 | 0.25 | 95 | 1005.9 |
| 20260506204546 | 61 | 0 | 0.0 | 6.1 | 0.05 | 0.24 | 0.24 | 95 | 1006.0 |
| 20260506203048 | 62 | 0 | 0.0 | 3.5 | 0.04 | 0.23 | 0.23 | 95 | 1006.1 |
| 20260506201546 | 62 | 0 | 0.0 | 0.0 | 0.04 | 0.22 | 0.22 | 95 | 1006.2 |
| 20260506200048 | 62 | 0 | 0.0 | 0.9 | 0.03 | 0.20 | 0.20 | 95 | 1006.1 |
| 20260506194548 | 62 | 0 | 0.0 | 0.0 | 0.06 | 0.19 | 0.19 | 94 | 1006.1 |
| 20260506193049 | 62 | 0 | 0.0 | 0.0 | 0.09 | 0.19 | 0.19 | 94 | 1006.2 |
| 20260506191546 | 62 | 0 | 0.0 | 0.9 | 0.09 | 0.18 | 0.18 | 93 | 1006.4 |
| 20260506190050 | 62 | 0 | 0.0 | 0.9 | 0.12 | 0.17 | 0.17 | 92 | 1006.8 |
| 20260506184548 | 63 | 0 | 0.0 | 1.7 | 0.13 | 0.13 | 0.13 | 92 | 1007.2 |
| 20260506183045 | 63 | 0 | 0.0 | 0.9 | 0.10 | 0.10 | 0.10 | 90 | 1007.0 |
| 20260506181553 | 64 | 0 | 0.0 | 1.7 | 0.09 | 0.09 | 0.09 | 86 | 1007.1 |
| 20260506180055 | 67 | 0 | 0.0 | 2.6 | 0.05 | 0.05 | 0.05 | 79 | 1007.2 |
| 20260506174550 | 71 | 280 | 0.9 | 6.1 | 0.00 | 0.00 | 0.00 | 67 | 1006.6 |
| 20260506173105 | 72 | 0 | 0.0 | 7.0 | 0.00 | 0.00 | 0.00 | 59 | 1006.4 |
| 20260506171553 | 73 | 0 | 0.0 | 7.0 | 0.00 | 0.00 | 0.00 | 58 | 1006.6 |
| 20260506170044 | 72 | 0 | 0.9 | 5.2 | 0.00 | 0.00 | 0.00 | 60 | 1006.8 |
| 20260506164609 | 72 | 0 | 0.9 | 7.0 | 0.00 | 0.00 | 0.00 | 60 | 1007.1 |
| 20260506163057 | 71 | 198 | 0.0 | 6.1 | 0.00 | 0.00 | 0.00 | 61 | 1007.3 |
| 20260506161551 | 71 | 71 | 1.7 | 9.6 | 0.00 | 0.00 | 0.00 | 61 | 1007.5 |
| 20260506160104 | 71 | 0 | 0.0 | 5.2 | 0.00 | 0.00 | 0.00 | 62 | 1008.0 |
| 20260506154553 | 71 | 155 | 0.0 | 4.3 | 0.00 | 0.00 | 0.00 | 64 | 1008.2 |
| 20260506153049 | 71 | 54 | 0.0 | 11.3 | 0.00 | 0.00 | 0.00 | 64 | 1008.6 |
| 20260506151553 | 70 | 0 | 0.9 | 6.1 | 0.00 | 0.00 | 0.00 | 66 | 1008.6 |
| 20260506150051 | 69 | 317 | 0.0 | 3.5 | 0.00 | 0.00 | 0.00 | 68 | 1008.7 |
| 20260506144549 | 68 | 0 | 0.0 | 7.8 | 0.00 | 0.00 | 0.00 | 69 | 1008.6 |
| 20260506143049 | 68 | 0 | 0.0 | 2.6 | 0.00 | 0.00 | 0.00 | 70 | 1008.7 |
| 20260506141609 | 68 | 103 | 0.0 | 6.1 | 0.00 | 0.00 | 0.00 | 70 | 1008.4 |
| 20260506140052 | 67 | 247 | 0.0 | 4.3 | 0.00 | 0.00 | 0.00 | 71 | 1008.6 |
| 20260506134549 | 66 | 0 | 0.0 | 4.3 | 0.00 | 0.00 | 0.00 | 73 | 1008.6 |
| 20260506133049 | 66 | 0 | 0.0 | 1.7 | 0.00 | 0.00 | 0.00 | 74 | 1008.8 |
| 20260506131548 | 65 | 0 | 0.0 | 3.5 | 0.00 | 0.00 | 0.00 | 75 | 1008.7 |
| 20260506130045 | 65 | 0 | 0.0 | 5.2 | 0.00 | 0.00 | 0.00 | 75 | 1008.9 |
| 20260506124551 | 64 | 0 | 0.0 | 3.5 | 0.00 | 0.00 | 0.00 | 76 | 1008.7 |
| 20260506123052 | 64 | 336 | 0.0 | 2.6 | 0.00 | 0.00 | 0.00 | 76 | 1008.6 |
| 20260506121555 | 63 | 0 | 0.0 | 4.3 | 0.00 | 0.00 | 0.00 | 78 | 1009.0 |
| 20260506120112 | 62 | 15 | 0.9 | 3.5 | 0.00 | 0.00 | 0.00 | 79 | 1009.1 |
| 20260506114547 | 61 | 0 | 0.0 | 2.6 | 0.00 | 0.00 | 0.00 | 80 | 1009.3 |
| 20260506113048 | 60 | 0 | 0.0 | 4.3 | 0.00 | 0.00 | 0.00 | 82 | 1009.4 |
| 20260506111552 | 59 | 0 | 0.0 | 1.7 | 0.00 | 0.00 | 0.00 | 84 | 1009.4 |
| 20260506110051 | 58 | 0 | 0.0 | 1.7 | 0.00 | 0.00 | 0.00 | 85 | 1009.7 |
| 20260506104548 | 57 | 0 | 0.0 | 0.0 | 0.00 | 0.00 | 0.00 | 86 | 1009.6 |
| 20260506103047 | 57 | 0 | 0.0 | 0.9 | 0.00 | 0.00 | 0.00 | 87 | 1009.3 |
| 20260506101547 | 56 | 0 | 0.0 | 0.9 | 0.00 | 0.00 | 0.00 | 88 | 1009.3 |
| 20260506100046 | 55 | 0 | 0.0 | 0.9 | 0.00 | 0.00 | 0.00 | 88 | 1009.5 |
| 20260506094551 | 55 | 0 | 0.0 | 0.9 | 0.00 | 0.00 | 0.00 | 88 | 1009.2 |
| 20260506093052 | 54 | 0 | 0.0 | 0.0 | 0.00 | 0.00 | 0.00 | 87 | 1009.3 |
| 20260506091547 | 55 | 0 | 0.0 | 0.0 | 0.00 | 0.00 | 0.00 | 86 | 1009.2 |
| 20260506090048 | 55 | 0 | 0.0 | 0.0 | 0.00 | 0.00 | 0.00 | 85 | 1009.2 |
| 20260506084544 | 56 | 0 | 0.0 | 0.9 | 0.00 | 0.00 | 0.00 | 84 | 1009.2 |
| 20260506083047 | 56 | 0 | 0.0 | 0.0 | 0.00 | 0.00 | 0.00 | 83 | 1009.1 |
| 20260506081554 | 57 | 0 | 0.0 | 0.0 | 0.00 | 0.00 | 0.00 | 81 | 1009.2 |
| 20260506073048 | 59 | 0 | 0.0 | 0.0 | 0.00 | 0.00 | 0.00 | 76 | 1008.9 |
| 20260506071554 | 60 | 0 | 0.0 | 0.9 | 0.00 | 0.00 | 0.00 | 75 | 1008.8 |